Time;durP1;ratioP1;P1;durP2;ratioP2;P2;SDS_P1;SDS_P2;PMS_P1;PMS_P2;Temp;Humidity;BMP_temperature;BMP_pressure;BME280_temperature;BME280_humidity;BME280_pressure;Samples;Min_cycle;Max_cycle;Signal;HPM_P1;HPM_P2
2022/01/02 00:01:51;;;;;;;9.23;4.38;;;11.70;99.90;;;;;;5055628;28;20045;-76
2022/01/02 00:04:20;;;;;;;10.77;4.60;;;11.70;99.90;;;;;;5038701;28;20043;-76
2022/01/02 00:06:53;;;;;;;11.60;4.55;;;11.60;99.90;;;;;;5038623;28;20051;-76
2022/01/02 00:09:36;;;;;;;9.82;4.68;;;11.70;99.90;;;;;;5055086;28;20040;-76
2022/01/02 00:12:10;;;;;;;10.32;4.78;;;11.70;99.90;;;;;;5055254;28;20029;-76
2022/01/02 00:14:38;;;;;;;11.55;5.28;;;11.60;99.90;;;;;;5038631;28;20083;-76
2022/01/02 00:17:06;;;;;;;11.43;4.97;;;11.60;99.90;;;;;;5055183;28;20078;-76
2022/01/02 00:19:34;;;;;;;12.32;5.50;;;11.60;99.90;;;;;;5038398;28;20127;-76
2022/01/02 00:22:03;;;;;;;13.25;5.40;;;11.60;99.90;;;;;;5055056;28;20036;-76
2022/01/02 00:24:31;;;;;;;12.90;5.07;;;11.50;99.90;;;;;;5055266;28;20426;-76
2022/01/02 00:26:59;;;;;;;12.98;5.40;;;11.50;99.90;;;;;;5038902;28;20052;-76
2022/01/02 00:29:25;;;;;;;11.30;4.97;;;11.50;99.90;;;;;;5055068;28;20115;-76
2022/01/02 00:31:52;;;;;;;10.25;5.43;;;11.50;99.90;;;;;;5054922;28;20492;-76
2022/01/02 00:34:18;;;;;;;12.05;5.72;;;11.50;99.90;;;;;;5055171;28;20435;-76
2022/01/02 00:36:44;;;;;;;11.25;5.18;;;11.50;99.90;;;;;;5038419;28;20503;-76
2022/01/02 00:39:09;;;;;;;15.15;5.68;;;11.50;99.90;;;;;;5038279;28;20036;-76
2022/01/02 00:41:53;;;;;;;12.93;5.35;;;11.40;99.90;;;;;;5054864;28;20052;-76
2022/01/02 00:44:26;;;;;;;10.07;5.32;;;11.40;99.90;;;;;;5038525;28;20500;-76
2022/01/02 00:47:12;;;;;;;11.68;5.53;;;11.40;99.90;;;;;;5055130;28;20033;-76
2022/01/02 00:49:40;;;;;;;11.13;5.30;;;11.40;99.90;;;;;;5054846;28;20067;-76
2022/01/02 00:52:12;;;;;;;12.00;5.35;;;11.40;99.90;;;;;;5058601;28;20086;-76
2022/01/02 00:54:39;;;;;;;14.35;5.88;;;11.40;99.90;;;;;;5058735;28;20572;-76
2022/01/02 00:57:10;;;;;;;12.60;6.65;;;11.40;99.90;;;;;;5058763;28;20040;-76
2022/01/02 00:59:57;;;;;;;10.73;5.72;;;11.40;99.90;;;;;;5042069;28;20051;-76
2022/01/02 01:02:31;;;;;;;14.07;5.97;;;11.40;99.90;;;;;;5058850;28;20040;-76
2022/01/02 01:04:58;;;;;;;14.85;5.72;;;11.40;99.90;;;;;;5058627;28;20041;-76
2022/01/02 01:07:25;;;;;;;11.77;5.55;;;11.40;99.90;;;;;;5042210;28;20040;-76
2022/01/02 01:09:56;;;;;;;13.23;6.00;;;11.40;99.90;;;;;;5041599;28;20040;-76
2022/01/02 01:12:22;;;;;;;13.85;5.82;;;11.40;99.90;;;;;;5042041;28;20392;-76
2022/01/02 01:14:49;;;;;;;19.00;6.50;;;11.40;99.90;;;;;;5058314;28;20416;-76
2022/01/02 01:17:15;;;;;;;11.70;5.75;;;11.40;99.90;;;;;;5058321;28;20043;-76
2022/01/02 01:19:42;;;;;;;12.00;6.45;;;11.40;99.90;;;;;;5059161;28;20040;-75
2022/01/02 01:22:08;;;;;;;16.13;5.90;;;11.40;99.90;;;;;;5058287;28;20056;-75
2022/01/02 01:24:35;;;;;;;13.50;6.47;;;11.40;99.90;;;;;;5058139;28;20441;-75
2022/01/02 01:27:04;;;;;;;13.15;6.43;;;11.40;99.90;;;;;;5058409;28;20052;-75
2022/01/02 01:29:34;;;;;;;11.98;5.90;;;11.40;99.90;;;;;;5058050;28;20036;-75
2022/01/02 01:32:01;;;;;;;15.82;6.32;;;11.40;99.90;;;;;;5058355;28;20119;-75
2022/01/02 01:34:26;;;;;;;16.10;6.68;;;11.30;99.90;;;;;;5041429;28;20041;-75
2022/01/02 01:36:52;;;;;;;14.43;6.43;;;11.30;99.90;;;;;;5041368;28;20074;-75
2022/01/02 01:39:18;;;;;;;12.38;6.60;;;11.30;99.90;;;;;;5057778;28;20051;-75
2022/01/02 01:41:46;;;;;;;11.52;6.18;;;11.30;99.90;;;;;;5057951;28;20123;-75
2022/01/02 01:46:39;;;;;;;16.42;6.70;;;11.30;99.90;;;;;;5058002;28;20040;-76
2022/01/02 01:49:22;;;;;;;14.65;6.75;;;11.30;99.90;;;;;;5057471;28;20037;-76
2022/01/02 01:51:48;;;;;;;13.75;6.47;;;11.40;99.90;;;;;;5057715;28;20086;-76
2022/01/02 01:54:15;;;;;;;14.20;6.47;;;11.30;99.90;;;;;;5057644;28;20032;-76
2022/01/02 01:56:41;;;;;;;16.23;6.78;;;11.30;99.90;;;;;;5057597;28;20036;-76
2022/01/02 01:59:07;;;;;;;12.95;6.70;;;11.30;99.90;;;;;;5040848;28;20037;-76
2022/01/02 02:01:34;;;;;;;14.32;6.70;;;11.30;99.90;;;;;;5057054;28;20051;-76
2022/01/02 02:03:59;;;;;;;14.52;7.10;;;11.30;99.90;;;;;;5057436;28;20059;-76
2022/01/02 02:06:26;;;;;;;15.90;7.15;;;11.30;99.90;;;;;;5057419;28;20492;-76
2022/01/02 02:08:54;;;;;;;17.38;7.07;;;11.30;99.90;;;;;;5041112;28;20040;-76
2022/01/02 02:11:21;;;;;;;14.93;6.90;;;11.40;99.90;;;;;;5057358;28;20120;-76
2022/01/02 02:13:47;;;;;;;12.80;7.10;;;11.40;99.90;;;;;;5040983;28;20509;-76
2022/01/02 02:16:13;;;;;;;13.50;6.20;;;11.30;99.90;;;;;;5057219;28;20043;-77
2022/01/02 02:18:38;;;;;;;20.35;6.93;;;11.30;99.90;;;;;;5057088;28;20032;-77
2022/01/02 02:21:04;;;;;;;12.70;6.55;;;11.40;99.90;;;;;;5057037;28;20049;-77
2022/01/02 02:23:30;;;;;;;17.25;7.05;;;11.40;99.90;;;;;;5040321;28;20037;-77
2022/01/02 02:25:55;;;;;;;19.27;6.78;;;11.30;99.90;;;;;;5057094;28;20050;-77
2022/01/02 02:28:26;;;;;;;16.58;6.95;;;11.30;99.90;;;;;;5040292;28;20036;-76
2022/01/02 02:30:53;;;;;;;14.82;6.30;;;11.30;99.90;;;;;;5056904;28;20048;-76
2022/01/02 02:33:19;;;;;;;19.58;6.78;;;11.40;99.90;;;;;;5057177;28;20040;-76
2022/01/02 02:35:46;;;;;;;19.55;7.30;;;11.30;99.90;;;;;;5056931;28;20038;-76
2022/01/02 02:38:14;;;;;;;16.50;8.07;;;11.30;99.90;;;;;;5040147;28;20048;-76
2022/01/02 02:40:41;;;;;;;15.63;6.45;;;11.30;99.90;;;;;;5040401;28;20041;-76
2022/01/02 02:43:31;;;;;;;18.60;7.18;;;11.30;99.90;;;;;;5040373;28;20365;-76
2022/01/02 02:51:57;;;;;;;18.08;7.07;;;11.30;99.90;;;;;;5056889;28;20040;-76
2022/01/02 02:54:26;;;;;;;19.67;7.65;;;11.30;99.90;;;;;;5040236;28;20492;-77
2022/01/02 02:57:03;;;;;;;17.38;7.13;;;11.40;99.90;;;;;;5056463;28;20044;-77
2022/01/02 02:59:35;;;;;;;17.92;7.05;;;11.40;99.90;;;;;;5056607;28;20109;-77
2022/01/02 03:02:01;;;;;;;16.08;7.47;;;11.30;99.90;;;;;;5040415;28;20043;-77
2022/01/02 03:04:27;;;;;;;15.55;6.72;;;11.30;99.90;;;;;;5056310;28;20040;-77
2022/01/02 03:06:53;;;;;;;19.42;7.55;;;11.30;99.90;;;;;;5039653;28;20047;-76
2022/01/02 03:10:02;;;;;;;16.98;6.90;;;11.40;99.90;;;;;;5055990;28;20044;-76
2022/01/02 03:12:11;;;;;;;18.08;8.27;;;11.30;99.90;;;;;;5045791;28;20044;-77
2022/01/02 03:14:36;;;;;;;20.40;7.20;;;11.40;99.90;;;;;;5039582;28;20033;-76
2022/01/02 03:17:03;;;;;;;19.50;8.23;;;11.30;99.90;;;;;;5039425;28;20515;-77
2022/01/02 03:19:29;;;;;;;16.73;7.43;;;11.30;99.90;;;;;;5056146;28;20040;-76
2022/01/02 03:21:55;;;;;;;19.15;7.65;;;11.30;99.90;;;;;;5056192;28;20044;-77
2022/01/02 03:24:20;;;;;;;17.75;7.82;;;11.20;99.90;;;;;;5055935;28;20050;-77
2022/01/02 03:26:46;;;;;;;17.38;7.82;;;11.30;99.90;;;;;;5055884;28;20085;-77
2022/01/02 03:29:11;;;;;;;16.85;7.10;;;11.20;99.90;;;;;;5056467;28;20132;-76
2022/01/02 03:31:37;;;;;;;18.98;7.13;;;11.20;99.90;;;;;;5039447;28;20079;-77
2022/01/02 03:34:03;;;;;;;16.40;8.07;;;11.30;99.90;;;;;;5055716;28;20042;-77
2022/01/02 03:36:28;;;;;;;14.50;6.80;;;11.30;99.90;;;;;;5055783;28;20029;-77
2022/01/02 03:38:54;;;;;;;14.27;6.55;;;11.30;99.90;;;;;;5055547;28;20094;-76
2022/01/02 03:41:20;;;;;;;18.75;7.22;;;11.30;99.90;;;;;;5055649;28;20040;-76
2022/01/02 03:43:45;;;;;;;17.42;7.50;;;11.30;99.90;;;;;;5039315;28;20044;-77
2022/01/02 03:46:12;;;;;;;17.35;6.85;;;11.30;99.90;;;;;;5055637;28;20040;-77
2022/01/02 03:48:37;;;;;;;19.35;6.82;;;11.30;99.90;;;;;;5055706;28;20068;-77
2022/01/02 03:51:03;;;;;;;18.33;7.40;;;11.30;99.90;;;;;;5038802;28;20072;-77
2022/01/02 03:53:29;;;;;;;15.43;6.18;;;11.30;99.90;;;;;;5055523;28;20523;-76
2022/01/02 03:55:55;;;;;;;17.10;6.80;;;11.30;99.90;;;;;;5055422;28;20059;-76
2022/01/02 03:58:20;;;;;;;14.35;6.43;;;11.30;99.90;;;;;;5055543;28;20102;-77
2022/01/02 04:00:46;;;;;;;16.25;6.00;;;11.40;99.90;;;;;;5055751;28;20040;-77
2022/01/02 04:03:11;;;;;;;21.15;6.43;;;11.40;99.90;;;;;;5055337;28;20459;-77
2022/01/02 04:05:37;;;;;;;17.65;6.47;;;11.40;99.90;;;;;;5055539;28;20037;-77
2022/01/02 04:08:04;;;;;;;14.90;6.45;;;11.40;99.90;;;;;;5038490;28;20546;-76
2022/01/02 04:10:30;;;;;;;22.35;6.97;;;11.40;99.90;;;;;;5038446;28;20089;-76
2022/01/02 04:12:55;;;;;;;17.38;6.90;;;11.40;99.90;;;;;;5055406;28;20040;-76
2022/01/02 04:15:21;;;;;;;16.67;6.72;;;11.40;99.90;;;;;;5056027;28;20362;-76
2022/01/02 04:17:47;;;;;;;19.45;6.78;;;11.40;99.90;;;;;;5055401;28;20550;-76
2022/01/02 04:20:14;;;;;;;17.40;6.38;;;11.40;99.90;;;;;;5055103;28;20058;-77
2022/01/02 04:22:40;;;;;;;19.58;6.00;;;11.40;99.90;;;;;;5038719;28;20111;-77
2022/01/02 04:25:07;;;;;;;18.80;6.65;;;11.40;99.90;;;;;;5037917;28;20079;-77
2022/01/02 04:27:34;;;;;;;16.17;6.68;;;11.40;99.90;;;;;;5038607;28;20173;-77
2022/01/02 04:30:00;;;;;;;15.48;5.82;;;11.40;99.90;;;;;;5054865;28;20052;-77
2022/01/02 04:32:25;;;;;;;21.55;6.10;;;11.40;99.90;;;;;;5055284;28;20043;-77
2022/01/02 04:34:51;;;;;;;23.77;6.57;;;11.40;99.90;;;;;;5054982;28;20470;-77
2022/01/02 04:37:17;;;;;;;18.33;6.20;;;11.40;99.90;;;;;;5054839;28;20033;-77
2022/01/02 04:39:43;;;;;;;15.85;6.03;;;11.40;99.90;;;;;;5038344;28;20083;-77
2022/01/02 04:42:09;;;;;;;18.63;6.57;;;11.40;99.90;;;;;;5054886;28;20447;-77
2022/01/02 04:44:35;;;;;;;19.65;5.90;;;11.40;99.90;;;;;;5054914;28;20051;-77
2022/01/02 04:47:01;;;;;;;14.38;6.13;;;11.40;99.90;;;;;;5038326;28;20082;-76
2022/01/02 04:49:27;;;;;;;19.50;5.85;;;11.40;99.90;;;;;;5054975;28;20041;-76
2022/01/02 04:51:53;;;;;;;17.45;5.57;;;11.50;99.90;;;;;;5038473;28;20110;-76
2022/01/02 04:54:20;;;;;;;14.88;5.32;;;11.50;99.90;;;;;;5054762;28;20083;-76
2022/01/02 04:56:46;;;;;;;17.40;5.70;;;11.50;99.90;;;;;;5038141;28;20040;-76
2022/01/02 04:59:12;;;;;;;21.02;6.28;;;11.50;99.90;;;;;;5054717;28;20090;-77
2022/01/02 05:01:37;;;;;;;18.77;5.53;;;11.50;99.90;;;;;;5054978;28;20041;-77
2022/01/02 05:04:03;;;;;;;15.15;5.53;;;11.50;99.90;;;;;;5055018;28;20056;-77
2022/01/02 05:06:29;;;;;;;15.60;5.35;;;11.50;99.90;;;;;;5038188;28;20037;-76
2022/01/02 05:08:54;;;;;;;15.57;5.45;;;11.50;99.90;;;;;;5054787;28;20063;-76
2022/01/02 05:11:20;;;;;;;17.45;5.30;;;11.60;99.90;;;;;;5054700;28;20439;-77
2022/01/02 05:13:46;;;;;;;13.40;5.47;;;11.60;99.90;;;;;;5054606;28;20041;-77
2022/01/02 05:16:11;;;;;;;19.05;5.68;;;11.60;99.90;;;;;;5054922;28;20098;-77
2022/01/02 05:18:37;;;;;;;19.25;5.45;;;11.60;99.90;;;;;;5054489;28;20090;-76
2022/01/02 05:21:03;;;;;;;18.40;4.70;;;11.60;99.90;;;;;;5054883;28;20075;-76
2022/01/02 05:23:29;;;;;;;15.38;5.22;;;11.60;99.90;;;;;;5054520;28;20582;-76
2022/01/02 05:25:58;;;;;;;21.88;5.47;;;11.60;99.90;;;;;;5054513;28;20048;-77
2022/01/02 05:28:24;;;;;;;15.23;5.70;;;11.70;99.90;;;;;;5037810;28;20040;-76
2022/01/02 05:30:50;;;;;;;11.48;4.75;;;11.60;99.90;;;;;;5054431;28;20520;-76
2022/01/02 05:33:15;;;;;;;13.00;4.88;;;11.60;99.90;;;;;;5054444;28;20041;-76
2022/01/02 05:35:41;;;;;;;16.02;5.53;;;11.70;99.90;;;;;;5054448;28;20036;-76
2022/01/02 05:38:06;;;;;;;19.85;4.72;;;11.70;99.90;;;;;;5039707;28;20399;-76
2022/01/02 05:40:33;;;;;;;17.10;4.88;;;11.70;99.90;;;;;;5041332;28;20086;-76
2022/01/02 05:43:00;;;;;;;13.02;4.75;;;11.70;99.90;;;;;;5057913;28;20043;-77
2022/01/02 05:45:25;;;;;;;13.32;4.70;;;11.70;99.90;;;;;;5058117;28;20493;-77
2022/01/02 05:47:51;;;;;;;17.83;4.65;;;11.70;99.90;;;;;;5057788;28;20044;-77
2022/01/02 05:50:16;;;;;;;18.95;4.40;;;11.70;99.90;;;;;;5041099;28;20099;-77
2022/01/02 05:52:42;;;;;;;17.98;4.95;;;11.70;99.90;;;;;;5041062;28;20040;-77
2022/01/02 05:55:08;;;;;;;23.02;4.78;;;11.70;99.90;;;;;;5041859;28;20062;-77
2022/01/02 05:57:33;;;;;;;16.85;4.13;;;11.70;99.90;;;;;;5057604;28;20032;-76
2022/01/02 05:59:59;;;;;;;15.25;5.20;;;11.80;99.90;;;;;;5057514;28;20408;-77
2022/01/02 06:02:24;;;;;;;11.70;4.30;;;11.80;99.90;;;;;;5057795;28;20044;-76
2022/01/02 06:04:50;;;;;;;16.17;4.93;;;11.90;99.90;;;;;;5057781;28;20043;-77
2022/01/02 06:07:16;;;;;;;16.27;4.18;;;11.90;99.90;;;;;;5057445;28;20618;-77
2022/01/02 06:09:42;;;;;;;13.10;4.05;;;12.00;99.90;;;;;;5040531;28;20044;-77
2022/01/02 06:12:08;;;;;;;13.63;3.80;;;12.00;99.90;;;;;;5057368;28;20039;-77
2022/01/02 06:14:33;;;;;;;15.43;3.92;;;12.00;99.90;;;;;;5057274;28;20046;-77
2022/01/02 06:16:59;;;;;;;13.32;3.67;;;12.00;99.90;;;;;;5057470;28;20036;-77
2022/01/02 06:19:25;;;;;;;19.38;3.97;;;12.10;99.90;;;;;;5057189;28;20047;-77
2022/01/02 06:21:51;;;;;;;12.77;4.32;;;12.10;99.90;;;;;;5057183;28;20044;-77
2022/01/02 06:24:17;;;;;;;13.32;3.65;;;12.10;99.90;;;;;;5057027;28;20040;-77
2022/01/02 06:26:42;;;;;;;11.93;3.28;;;12.20;99.90;;;;;;5040438;28;20032;-77
2022/01/02 06:29:08;;;;;;;12.98;3.50;;;12.20;99.90;;;;;;5040695;28;20104;-76
2022/01/02 06:31:34;;;;;;;13.98;3.72;;;12.20;99.90;;;;;;5056940;28;20558;-76
2022/01/02 06:33:59;;;;;;;13.45;3.35;;;12.10;99.90;;;;;;5056967;28;20043;-76
2022/01/02 06:36:25;;;;;;;12.43;3.60;;;12.20;99.90;;;;;;5057115;28;20040;-76
2022/01/02 06:38:50;;;;;;;11.88;3.30;;;12.20;99.90;;;;;;5040185;28;20037;-76
2022/01/02 06:41:17;;;;;;;12.32;3.20;;;12.20;99.90;;;;;;5056829;28;20048;-77
2022/01/02 06:43:43;;;;;;;10.63;3.60;;;12.20;99.90;;;;;;5040073;28;20067;-77
2022/01/02 06:46:09;;;;;;;12.65;3.50;;;12.20;99.90;;;;;;5056999;28;20145;-77
2022/01/02 06:48:35;;;;;;;11.75;3.50;;;12.20;99.90;;;;;;5056412;28;20040;-76
2022/01/02 06:51:00;;;;;;;10.90;3.42;;;12.30;99.90;;;;;;5056504;28;20037;-77
2022/01/02 06:53:26;;;;;;;9.85;2.53;;;12.30;99.90;;;;;;5056549;28;20044;-77
2022/01/02 06:55:51;;;;;;;13.73;2.90;;;12.30;99.90;;;;;;5056612;28;20036;-77
2022/01/02 06:58:17;;;;;;;15.05;3.75;;;12.30;99.90;;;;;;5040000;28;20040;-77
2022/01/02 07:00:43;;;;;;;12.35;3.00;;;12.30;99.90;;;;;;5056476;28;20087;-77
2022/01/02 07:03:10;;;;;;;17.20;4.05;;;12.30;99.90;;;;;;5040312;28;20086;-77
2022/01/02 07:05:36;;;;;;;12.05;3.40;;;12.30;99.90;;;;;;5056598;28;20443;-77
2022/01/02 07:08:02;;;;;;;13.25;3.50;;;12.20;99.90;;;;;;5056216;28;20037;-77
2022/01/02 07:10:28;;;;;;;13.20;3.78;;;12.20;99.90;;;;;;5039507;28;20044;-76
2022/01/02 07:12:55;;;;;;;16.52;3.85;;;12.20;99.90;;;;;;5056190;28;20416;-77
2022/01/02 07:15:20;;;;;;;10.32;3.40;;;12.20;99.90;;;;;;5056488;28;20043;-77
2022/01/02 07:17:46;;;;;;;8.80;3.25;;;12.10;99.90;;;;;;5039401;28;20040;-77
2022/01/02 07:20:12;;;;;;;10.85;3.35;;;12.10;99.90;;;;;;5056045;28;20037;-77
2022/01/02 07:22:40;;;;;;;16.42;3.80;;;12.10;99.90;;;;;;5039561;28;20396;-77
2022/01/02 07:25:07;;;;;;;10.73;3.83;;;12.10;99.90;;;;;;5055984;28;20207;-76
2022/01/02 07:27:33;;;;;;;12.77;3.25;;;12.10;99.90;;;;;;5056083;28;20055;-77
2022/01/02 07:29:59;;;;;;;7.97;3.20;;;12.10;99.90;;;;;;5039133;28;20401;-77
2022/01/02 07:32:25;;;;;;;10.70;3.67;;;12.00;99.90;;;;;;5039164;28;20058;-77
2022/01/02 07:34:50;;;;;;;11.15;3.72;;;12.00;99.90;;;;;;5055729;28;20039;-77
2022/01/02 07:37:16;;;;;;;14.10;4.32;;;12.00;99.90;;;;;;5055741;28;20037;-76
2022/01/02 07:39:42;;;;;;;9.13;3.35;;;12.00;99.90;;;;;;5055875;28;20067;-77
2022/01/02 07:42:08;;;;;;;8.52;3.38;;;12.00;99.90;;;;;;5039442;28;20040;-77
2022/01/02 07:44:34;;;;;;;11.75;3.53;;;12.00;99.90;;;;;;5055577;28;20090;-76
2022/01/02 07:46:59;;;;;;;8.32;3.40;;;12.00;99.90;;;;;;5038920;28;20098;-76
2022/01/02 07:49:25;;;;;;;10.65;4.00;;;12.00;99.90;;;;;;5055437;28;20154;-77
2022/01/02 07:51:50;;;;;;;11.25;3.90;;;12.00;99.90;;;;;;5055520;28;20409;-77
2022/01/02 07:54:16;;;;;;;9.98;3.75;;;12.00;99.90;;;;;;5055483;28;20127;-76
2022/01/02 07:56:42;;;;;;;9.00;3.47;;;12.00;99.90;;;;;;5055720;28;20106;-77
2022/01/02 07:59:08;;;;;;;15.52;4.18;;;11.90;99.90;;;;;;5055160;28;20037;-77
2022/01/02 08:01:34;;;;;;;14.15;4.15;;;11.90;99.90;;;;;;5054782;28;20553;-77
2022/01/02 08:03:59;;;;;;;15.25;4.15;;;11.90;99.90;;;;;;5055641;28;20119;-77
2022/01/02 08:06:25;;;;;;;12.65;4.07;;;11.90;99.90;;;;;;5055315;28;20532;-76
2022/01/02 08:08:51;;;;;;;9.98;3.40;;;11.90;99.90;;;;;;5055761;28;20039;-76
2022/01/02 08:11:17;;;;;;;9.57;3.42;;;11.80;99.90;;;;;;5055222;28;20040;-76
2022/01/02 08:13:46;;;;;;;10.73;4.03;;;11.80;99.90;;;;;;5055250;28;20043;-75
2022/01/02 08:16:12;;;;;;;11.82;4.10;;;11.80;99.90;;;;;;5055168;28;20115;-75
2022/01/02 08:18:39;;;;;;;10.50;3.58;;;11.80;99.90;;;;;;5038704;28;20032;-76
2022/01/02 08:21:04;;;;;;;10.18;3.78;;;11.70;99.90;;;;;;5038811;28;20082;-75
2022/01/02 08:23:30;;;;;;;8.27;3.97;;;11.70;99.90;;;;;;5055007;28;20041;-76
2022/01/02 08:25:56;;;;;;;14.07;4.03;;;11.70;99.90;;;;;;5055052;28;20094;-75
2022/01/02 08:28:21;;;;;;;11.25;4.35;;;11.70;99.90;;;;;;5054967;28;20456;-75
2022/01/02 08:30:47;;;;;;;9.75;3.90;;;11.70;99.90;;;;;;5054902;28;20114;-76
2022/01/02 08:33:14;;;;;;;10.13;3.80;;;11.70;99.90;;;;;;5055270;28;20036;-75
2022/01/02 08:35:40;;;;;;;12.27;3.85;;;11.70;99.90;;;;;;5038442;28;20485;-75
2022/01/02 08:38:06;;;;;;;11.65;4.15;;;11.70;99.90;;;;;;5054866;28;20041;-75
2022/01/02 08:40:31;;;;;;;9.65;3.83;;;11.70;99.90;;;;;;5055179;28;20040;-75
2022/01/02 08:42:57;;;;;;;9.00;3.45;;;11.70;99.90;;;;;;5055191;28;20135;-75
2022/01/02 08:45:23;;;;;;;11.63;4.25;;;11.70;99.90;;;;;;5055196;28;20516;-74
2022/01/02 08:47:49;;;;;;;10.18;3.80;;;11.70;99.90;;;;;;5054758;28;20534;-75
2022/01/02 08:50:15;;;;;;;10.50;3.65;;;11.70;99.90;;;;;;5054795;28;20047;-75
2022/01/02 08:52:40;;;;;;;9.73;3.72;;;11.60;99.90;;;;;;5054926;28;20044;-76
2022/01/02 08:55:06;;;;;;;9.77;3.80;;;11.60;99.90;;;;;;5055119;28;20042;-76
2022/01/02 08:57:32;;;;;;;9.43;3.75;;;11.60;99.90;;;;;;5055068;28;20032;-76
2022/01/02 08:59:57;;;;;;;12.30;4.13;;;11.60;99.90;;;;;;5054689;28;20098;-75
2022/01/02 09:02:23;;;;;;;8.85;4.05;;;11.50;99.90;;;;;;5054671;28;20044;-75
2022/01/02 09:04:48;;;;;;;8.55;3.65;;;11.50;99.90;;;;;;5054686;28;20044;-75
2022/01/02 09:07:14;;;;;;;11.55;3.55;;;11.50;99.90;;;;;;5038409;28;20036;-75
2022/01/02 09:09:40;;;;;;;10.27;3.88;;;11.50;99.90;;;;;;5054331;28;20408;-75
2022/01/02 09:12:07;;;;;;;10.18;3.45;;;11.50;99.90;;;;;;5056598;28;20040;-73
2022/01/02 09:14:33;;;;;;;11.82;4.63;;;11.50;99.90;;;;;;5058637;28;20033;-76
2022/01/02 09:16:58;;;;;;;10.35;3.60;;;11.50;99.90;;;;;;5041664;28;20040;-77
2022/01/02 09:19:24;;;;;;;7.82;3.60;;;11.50;99.90;;;;;;5058324;28;20051;-77
2022/01/02 09:21:50;;;;;;;8.35;3.45;;;11.50;99.90;;;;;;5058472;28;20093;-76
2022/01/02 09:24:15;;;;;;;8.70;3.72;;;11.60;99.90;;;;;;5058053;28;20484;-76
2022/01/02 09:26:41;;;;;;;8.23;3.90;;;11.60;99.90;;;;;;5058246;28;20040;-76
2022/01/02 09:29:07;;;;;;;10.30;4.00;;;11.70;99.90;;;;;;5042003;28;20048;-76
2022/01/02 09:31:32;;;;;;;9.13;3.55;;;11.70;99.90;;;;;;5058121;28;20029;-76
2022/01/02 09:33:58;;;;;;;11.15;3.88;;;11.70;99.90;;;;;;5058116;28;20040;-76
2022/01/02 09:36:23;;;;;;;14.73;3.63;;;11.70;99.90;;;;;;5058038;28;20032;-76
2022/01/02 09:38:50;;;;;;;12.73;3.85;;;11.80;99.90;;;;;;5057891;28;20047;-75
2022/01/02 09:41:18;;;;;;;11.45;3.58;;;11.80;99.90;;;;;;5057908;28;20047;-75
2022/01/02 09:43:44;;;;;;;9.48;3.35;;;11.90;99.90;;;;;;5058128;28;20041;-75
2022/01/02 09:46:11;;;;;;;12.27;3.90;;;11.90;99.90;;;;;;5057812;28;20048;-75
2022/01/02 09:48:38;;;;;;;9.43;3.83;;;12.00;99.90;;;;;;5057655;28;20135;-76
2022/01/02 09:51:03;;;;;;;9.63;3.50;;;12.10;99.90;;;;;;5057465;28;20040;-75
2022/01/02 09:53:29;;;;;;;11.70;5.13;;;12.10;99.90;;;;;;5057737;28;20090;-76
2022/01/02 09:55:55;;;;;;;8.55;3.95;;;12.20;99.90;;;;;;5057913;28;20037;-76
2022/01/02 09:58:21;;;;;;;8.93;3.33;;;12.20;99.90;;;;;;5057591;28;20067;-76
2022/01/02 10:00:48;;;;;;;7.13;3.63;;;12.20;99.90;;;;;;5057506;28;20076;-76
2022/01/02 10:03:14;;;;;;;11.75;3.85;;;12.20;99.90;;;;;;5040791;28;20509;-76
2022/01/02 10:05:53;;;;;;;9.07;3.63;;;12.20;99.90;;;;;;5057505;28;20408;-75
2022/01/02 10:08:30;;;;;;;13.00;3.90;;;12.20;99.90;;;;;;5057266;28;20040;-76
2022/01/02 10:11:07;;;;;;;10.18;3.95;;;12.20;99.90;;;;;;5057344;28;20505;-75
2022/01/02 10:13:52;;;;;;;9.77;3.88;;;12.20;99.90;;;;;;5041044;28;20036;-75
2022/01/02 10:16:39;;;;;;;7.07;3.42;;;12.10;99.90;;;;;;5041104;28;20500;-76
2022/01/02 10:19:29;;;;;;;8.98;3.83;;;12.10;99.90;;;;;;5041689;28;20036;-76
2022/01/02 10:22:01;;;;;;;10.02;3.95;;;12.10;99.90;;;;;;5040905;28;20032;-76
2022/01/02 10:24:31;;;;;;;9.73;3.75;;;12.10;99.90;;;;;;5039879;28;20072;-75
2022/01/02 10:27:18;;;;;;;14.25;4.53;;;12.10;99.90;;;;;;5057051;28;20440;-76
2022/01/02 10:29:56;;;;;;;9.52;4.10;;;12.10;99.90;;;;;;5040702;28;20037;-76
2022/01/02 10:32:27;;;;;;;12.52;4.75;;;12.10;99.90;;;;;;5057078;28;20511;-75
2022/01/02 10:35:07;;;;;;;10.07;3.92;;;12.10;99.90;;;;;;5057590;28;20093;-76
2022/01/02 10:37:33;;;;;;;12.57;3.90;;;12.10;99.90;;;;;;5057175;28;20032;-76
2022/01/02 10:39:58;;;;;;;12.55;4.05;;;12.10;99.90;;;;;;5057015;28;20406;-76
2022/01/02 10:42:24;;;;;;;11.93;4.20;;;12.10;99.90;;;;;;5040255;28;20412;-76
2022/01/02 10:44:50;;;;;;;8.40;3.92;;;12.10;99.90;;;;;;5040001;28;20037;-74
2022/01/02 10:47:17;;;;;;;10.10;3.92;;;12.10;99.90;;;;;;5056681;28;20047;-76
2022/01/02 10:49:51;;;;;;;8.70;3.92;;;12.20;99.90;;;;;;5056571;28;20079;-74
2022/01/02 10:52:28;;;;;;;8.95;4.15;;;12.20;99.90;;;;;;5056844;28;20024;-75
2022/01/02 10:54:56;;;;;;;10.45;3.92;;;12.20;99.90;;;;;;5056593;28;20033;-74
2022/01/02 10:57:22;;;;;;;11.82;3.85;;;12.20;99.90;;;;;;5056585;28;20119;-74
2022/01/02 10:59:47;;;;;;;9.15;3.83;;;12.20;99.90;;;;;;5056671;28;20075;-74
2022/01/02 11:02:15;;;;;;;8.93;3.83;;;12.20;99.90;;;;;;5056315;28;20086;-74
2022/01/02 11:04:59;;;;;;;11.68;4.25;;;12.30;99.90;;;;;;5039676;28;20040;-74
2022/01/02 11:07:25;;;;;;;10.60;3.63;;;12.30;99.90;;;;;;5056275;28;20044;-74
2022/01/02 11:09:54;;;;;;;10.00;4.05;;;12.20;99.90;;;;;;5055991;28;20524;-74
2022/01/02 11:12:21;;;;;;;10.25;3.88;;;12.20;99.90;;;;;;5056191;28;20077;-74
2022/01/02 11:14:48;;;;;;;11.30;3.83;;;12.20;99.90;;;;;;5056159;28;20044;-74
2022/01/02 11:17:14;;;;;;;11.07;3.80;;;12.20;99.90;;;;;;5056139;28;20036;-74
2022/01/02 11:19:41;;;;;;;14.50;4.75;;;12.20;99.90;;;;;;5056040;28;20527;-74
2022/01/02 11:22:13;;;;;;;10.57;3.70;;;12.20;99.90;;;;;;5056077;28;20041;-74
2022/01/02 11:24:47;;;;;;;11.32;3.75;;;12.10;99.90;;;;;;5039401;28;20044;-74
2022/01/02 11:27:22;;;;;;;9.60;4.03;;;12.10;99.90;;;;;;5039319;28;20094;-74
2022/01/02 11:29:47;;;;;;;12.43;3.60;;;12.10;99.90;;;;;;5055777;28;20128;-74
2022/01/02 11:32:25;;;;;;;7.78;3.80;;;12.10;99.90;;;;;;5055885;28;20116;-74
2022/01/02 11:34:52;;;;;;;10.70;3.85;;;12.10;99.90;;;;;;5055707;28;20033;-74
2022/01/02 11:37:21;;;;;;;8.63;3.58;;;12.10;99.90;;;;;;5055796;28;20098;-74
2022/01/02 11:40:01;;;;;;;8.68;4.15;;;12.10;99.90;;;;;;5039038;28;20489;-74
2022/01/02 11:42:38;;;;;;;10.70;4.13;;;12.10;99.90;;;;;;5055666;28;20040;-74
2022/01/02 11:45:05;;;;;;;9.15;4.07;;;12.10;99.90;;;;;;5055916;28;20048;-73
2022/01/02 11:47:44;;;;;;;11.32;3.78;;;12.10;99.90;;;;;;5055795;28;20089;-74
2022/01/02 11:50:28;;;;;;;11.73;3.90;;;12.10;99.90;;;;;;5038826;28;20040;-74
2022/01/02 11:53:09;;;;;;;10.23;3.63;;;12.10;99.90;;;;;;5038795;28;20044;-74
2022/01/02 11:55:35;;;;;;;10.63;4.00;;;12.10;99.90;;;;;;5055474;28;20120;-74
2022/01/02 11:58:00;;;;;;;12.80;4.07;;;12.10;99.90;;;;;;5055352;28;20123;-74
2022/01/02 12:00:40;;;;;;;10.30;3.55;;;12.10;99.90;;;;;;5055695;28;20037;-74
2022/01/02 12:03:26;;;;;;;8.02;3.55;;;12.10;99.90;;;;;;5055385;28;20527;-74
2022/01/02 12:06:13;;;;;;;13.15;3.08;;;12.10;99.90;;;;;;5055119;28;20523;-74
2022/01/02 12:08:38;;;;;;;14.18;3.33;;;12.10;99.90;;;;;;5055161;28;20044;-75
2022/01/02 12:11:40;;;;;;;10.30;3.28;;;12.00;99.90;;;;;;5055186;28;20040;-74
2022/01/02 12:14:17;;;;;;;14.85;2.88;;;12.10;99.90;;;;;;5055805;28;20032;-74
2022/01/02 12:16:52;;;;;;;11.65;3.35;;;12.10;99.90;;;;;;5038799;28;20100;-74
2022/01/02 12:19:17;;;;;;;13.93;2.85;;;12.10;99.90;;;;;;5055094;28;20127;-75
2022/01/02 12:22:15;;;;;;;12.95;2.97;;;12.10;99.90;;;;;;5055040;28;20128;-74
2022/01/02 12:24:41;;;;;;;15.70;3.30;;;12.10;99.90;;;;;;5055050;28;20048;-74
2022/01/02 12:27:13;;;;;;;15.95;3.53;;;12.10;99.90;;;;;;5055040;28;20492;-73
2022/01/02 12:29:40;;;;;;;15.73;3.42;;;12.10;99.90;;;;;;5055114;28;20111;-74
2022/01/02 12:32:07;;;;;;;16.08;3.70;;;12.10;99.90;;;;;;5038711;28;20037;-73
2022/01/02 12:34:33;;;;;;;11.45;3.10;;;12.10;99.90;;;;;;5054994;28;20071;-74
2022/01/02 12:36:59;;;;;;;13.85;2.90;;;12.10;99.90;;;;;;5054984;28;20146;-73
2022/01/02 12:39:28;;;;;;;13.15;3.05;;;12.10;99.90;;;;;;5054902;28;20033;-74
2022/01/02 12:42:01;;;;;;;13.32;2.90;;;12.20;99.90;;;;;;5055245;28;20044;-74
2022/01/02 12:44:30;;;;;;;11.18;3.33;;;12.60;99.90;;;;;;5038406;28;20511;-74
2022/01/02 12:46:58;;;;;;;17.52;3.45;;;12.70;99.90;;;;;;5057035;28;20036;-73
2022/01/02 12:49:26;;;;;;;19.48;4.30;;;12.80;99.90;;;;;;5058731;28;20443;-72
2022/01/02 12:52:03;;;;;;;13.63;3.22;;;12.80;99.90;;;;;;5059130;28;20033;-74